Time;durP1;ratioP1;P1;durP2;ratioP2;P2;SDS_P1;SDS_P2;PMS_P1;PMS_P2;Temp;Humidity;BMP_temperature;BMP_pressure;BME280_temperature;BME280_humidity;BME280_pressure;Samples;Min_cycle;Max_cycle;Signal;HPM_P1;HPM_P2
2023/04/23 00:01:05;;;;;;;62.33;31.35;;;;;;;9.71;100.00;100442.69;4995339;28;20401;-74
2023/04/23 00:03:33;;;;;;;65.13;33.08;;;;;;;9.67;100.00;100444.72;4999375;28;20048;-75
2023/04/23 00:06:06;;;;;;;66.63;33.03;;;;;;;9.67;100.00;100447.50;4999121;28;20133;-75
2023/04/23 00:08:33;;;;;;;66.43;31.23;;;;;;;9.53;100.00;100447.69;5009497;28;20049;-71
2023/04/23 00:11:00;;;;;;;67.53;32.67;;;;;;;9.44;100.00;100450.19;5001467;28;20058;-71
2023/04/23 00:13:27;;;;;;;66.97;33.95;;;;;;;9.42;100.00;100439.50;5003095;28;20049;-71
2023/04/23 00:15:54;;;;;;;64.75;31.88;;;;;;;9.41;100.00;100443.50;5007795;28;20148;-70
2023/04/23 00:18:20;;;;;;;62.33;32.25;;;;;;;9.37;100.00;100437.22;5006533;28;20417;-73
2023/04/23 00:20:47;;;;;;;60.17;29.23;;;;;;;9.29;100.00;100446.03;5002397;28;20060;-73
2023/04/23 00:23:14;;;;;;;67.10;30.70;;;;;;;9.27;100.00;100448.41;5006911;28;20065;-73
2023/04/23 00:25:40;;;;;;;65.55;32.00;;;;;;;9.20;100.00;100449.31;5003915;28;20051;-71
2023/04/23 00:28:07;;;;;;;64.68;30.85;;;;;;;9.23;100.00;100444.91;4999629;28;20052;-72
2023/04/23 00:30:33;;;;;;;68.60;34.13;;;;;;;9.19;100.00;100438.63;5006249;28;20049;-72
2023/04/23 00:33:00;;;;;;;65.03;31.20;;;;;;;9.16;100.00;100442.22;5003026;28;20042;-72
2023/04/23 00:35:26;;;;;;;68.13;34.42;;;;;;;9.15;100.00;100437.88;5004043;28;20050;-73
2023/04/23 00:37:53;;;;;;;67.55;32.65;;;;;;;9.23;100.00;100439.38;5008473;28;20049;-73
2023/04/23 00:40:20;;;;;;;72.45;33.97;;;;;;;9.22;100.00;100429.47;5000593;28;20066;-71
2023/04/23 00:42:48;;;;;;;72.30;33.10;;;;;;;9.26;100.00;100438.53;5004061;28;20049;-70
2023/04/23 00:45:15;;;;;;;75.45;36.78;;;;;;;9.26;100.00;100439.31;5003458;28;20069;-72
2023/04/23 00:47:42;;;;;;;72.43;34.78;;;;;;;9.29;100.00;100432.16;5007527;28;20137;-72
2023/04/23 00:50:08;;;;;;;70.07;34.45;;;;;;;9.24;100.00;100436.19;5005905;28;20054;-72
2023/04/23 00:52:35;;;;;;;61.05;29.75;;;;;;;9.10;100.00;100441.91;4998239;28;20053;-72
2023/04/23 00:55:02;;;;;;;66.35;29.90;;;;;;;9.11;100.00;100437.91;4999808;28;20050;-72
2023/04/23 00:57:28;;;;;;;70.72;34.13;;;;;;;9.15;100.00;100437.88;5000678;28;20076;-72
2023/04/23 00:59:57;;;;;;;72.05;33.70;;;;;;;9.12;100.00;100438.72;5004804;28;20042;-71
2023/04/23 01:02:27;;;;;;;64.70;32.38;;;;;;;9.07;100.00;100439.16;5005712;28;20068;-71
2023/04/23 01:04:54;;;;;;;71.90;35.92;;;;;;;9.10;100.00;100436.34;5004118;28;20128;-73
2023/04/23 01:07:21;;;;;;;77.35;37.10;;;;;;;9.17;100.00;100432.69;5005636;28;20045;-71
2023/04/23 01:09:50;;;;;;;73.97;37.03;;;;;;;9.10;100.00;100416.16;5007007;28;20047;-72
2023/04/23 01:12:16;;;;;;;74.03;34.17;;;;;;;9.07;100.00;100426.09;5001831;28;20050;-72
2023/04/23 01:14:43;;;;;;;74.07;33.78;;;;;;;9.12;100.00;100430.41;5000444;28;20065;-72
2023/04/23 01:17:11;;;;;;;75.40;36.50;;;;;;;9.11;100.00;100424.06;5006776;28;20117;-72
2023/04/23 01:19:38;;;;;;;73.90;34.35;;;;;;;9.09;100.00;100417.34;4995324;28;20046;-71
2023/04/23 01:22:12;;;;;;;76.45;34.75;;;;;;;9.10;100.00;100424.47;4999829;28;20049;-72
2023/04/23 01:24:41;;;;;;;78.43;36.35;;;;;;;9.14;100.00;100416.88;5007978;28;20068;-72
2023/04/23 01:27:09;;;;;;;69.20;33.55;;;;;;;9.09;100.00;100428.44;5008099;28;20534;-71
2023/04/23 01:29:37;;;;;;;75.85;35.13;;;;;;;9.06;100.00;100430.06;5002784;28;20137;-70
2023/04/23 01:32:04;;;;;;;76.63;37.33;;;;;;;9.05;100.00;100431.25;4991388;28;20049;-71
2023/04/23 01:34:31;;;;;;;86.97;41.15;;;;;;;9.07;100.00;100428.84;5008016;28;20045;-71
2023/04/23 01:36:58;;;;;;;77.97;36.70;;;;;;;9.03;100.00;100424.56;4996722;28;20132;-72
2023/04/23 01:39:25;;;;;;;79.35;36.88;;;;;;;9.02;100.00;100423.75;5006753;28;20053;-71
2023/04/23 01:41:52;;;;;;;80.95;38.25;;;;;;;8.99;100.00;100432.13;5006034;28;20527;-70
2023/04/23 01:44:19;;;;;;;80.60;37.00;;;;;;;8.97;100.00;100428.97;5007321;28;20048;-73
2023/04/23 01:46:45;;;;;;;84.70;38.60;;;;;;;8.97;100.00;100428.97;4995319;28;20477;-72
2023/04/23 01:49:12;;;;;;;80.57;37.92;;;;;;;8.97;100.00;100427.00;4999398;28;20077;-72
2023/04/23 01:51:39;;;;;;;81.32;38.55;;;;;;;9.03;100.00;100421.78;5003861;28;20144;-72
2023/04/23 01:54:05;;;;;;;83.97;39.72;;;;;;;9.04;100.00;100423.34;5005774;28;20069;-71
2023/04/23 01:56:34;;;;;;;80.28;38.58;;;;;;;9.07;100.00;100425.28;5000102;28;20748;-72
2023/04/23 01:59:01;;;;;;;84.93;41.03;;;;;;;9.08;100.00;100426.88;5004407;28;20056;-71
2023/04/23 02:01:41;;;;;;;79.95;38.40;;;;;;;9.04;100.00;100428.88;5000771;28;20559;-72
2023/04/23 02:04:10;;;;;;;87.60;41.25;;;;;;;9.10;100.00;100430.81;4995727;28;20193;-72
2023/04/23 02:06:37;;;;;;;86.10;39.70;;;;;;;9.08;100.00;100418.56;5004275;28;20049;-72
2023/04/23 02:09:03;;;;;;;95.28;41.17;;;;;;;9.09;100.00;100434.00;5004687;28;20050;-72
2023/04/23 02:11:30;;;;;;;85.57;39.03;;;;;;;9.06;100.00;100427.28;5007256;28;20053;-73
2023/04/23 02:13:56;;;;;;;87.60;39.67;;;;;;;9.03;100.00;100435.63;5002470;28;20042;-72
2023/04/23 02:16:23;;;;;;;88.78;40.83;;;;;;;9.01;100.00;100427.72;4997706;28;20054;-72
2023/04/23 02:18:50;;;;;;;81.47;38.95;;;;;;;9.04;100.00;100426.09;4997607;28;20662;-72
2023/04/23 02:21:17;;;;;;;82.85;37.55;;;;;;;9.03;100.00;100424.56;5007752;28;20133;-71
2023/04/23 02:23:43;;;;;;;77.53;36.80;;;;;;;9.04;100.00;100426.09;5003697;28;20049;-72
2023/04/23 02:26:10;;;;;;;72.25;33.50;;;;;;;9.04;100.00;100421.34;5007544;28;20050;-72
2023/04/23 02:28:36;;;;;;;73.90;34.53;;;;;;;9.00;100.00;100423.41;5007455;28;20045;-73
2023/04/23 02:31:03;;;;;;;73.45;33.78;;;;;;;8.89;100.00;100413.63;5003476;28;20053;-73
2023/04/23 02:33:30;;;;;;;77.70;34.25;;;;;;;8.94;100.00;100416.72;5000135;28;20050;-73
2023/04/23 02:35:56;;;;;;;73.03;37.08;;;;;;;8.92;100.00;100415.56;5005220;28;20050;-73
2023/04/23 02:38:23;;;;;;;75.88;35.33;;;;;;;8.84;100.00;100412.09;5001339;28;20160;-72
2023/04/23 02:40:49;;;;;;;76.75;35.92;;;;;;;8.79;100.00;100408.97;5001218;28;20049;-74
2023/04/23 02:43:17;;;;;;;77.93;34.65;;;;;;;8.80;100.00;100413.31;5004346;28;20046;-72
2023/04/23 02:45:46;;;;;;;74.25;34.25;;;;;;;8.78;100.00;100410.19;5006515;28;20088;-72
2023/04/23 02:48:13;;;;;;;74.18;35.17;;;;;;;8.71;100.00;100399.19;5009001;28;20066;-73
2023/04/23 02:50:40;;;;;;;75.93;34.97;;;;;;;8.63;100.00;100404.00;5002370;28;20072;-71
2023/04/23 02:53:07;;;;;;;76.70;35.20;;;;;;;8.60;100.00;100402.03;5010485;28;20056;-71
2023/04/23 02:55:33;;;;;;;84.40;37.50;;;;;;;8.57;100.00;100408.38;5010661;28;20060;-71
2023/04/23 02:58:00;;;;;;;77.75;35.78;;;;;;;8.55;100.00;100410.78;5010734;28;20140;-73
2023/04/23 03:00:27;;;;;;;69.35;32.92;;;;;;;8.46;100.00;100410.47;5011276;28;20046;-73
2023/04/23 03:02:53;;;;;;;81.60;33.90;;;;;;;8.39;100.00;100406.97;4996601;28;20611;-73
2023/04/23 03:05:20;;;;;;;71.43;33.58;;;;;;;8.33;100.00;100401.09;5009306;28;20140;-71
2023/04/23 03:07:47;;;;;;;80.75;34.75;;;;;;;8.28;100.00;100404.31;5010590;28;20057;-72
2023/04/23 03:10:13;;;;;;;74.47;34.38;;;;;;;8.30;100.00;100406.69;5005212;28;20046;-73
2023/04/23 03:12:40;;;;;;;75.82;36.10;;;;;;;8.27;100.00;100410.28;5006133;28;20053;-72
2023/04/23 03:15:06;;;;;;;69.57;32.33;;;;;;;8.25;100.00;100404.34;5010810;28;20038;-72
2023/04/23 03:17:33;;;;;;;72.90;34.15;;;;;;;8.25;100.00;100412.66;5008188;28;20531;-72
2023/04/23 03:20:00;;;;;;;74.10;33.05;;;;;;;8.20;100.00;100410.34;5006267;28;20054;-72
2023/04/23 03:22:26;;;;;;;67.40;33.10;;;;;;;8.19;100.00;100409.53;5009272;28;20069;-72
2023/04/23 03:24:53;;;;;;;69.15;32.40;;;;;;;8.21;100.00;100406.34;5002000;28;20056;-72
2023/04/23 03:27:21;;;;;;;70.20;32.40;;;;;;;8.16;100.00;100404.81;4996509;28;20501;-71
2023/04/23 03:29:47;;;;;;;73.78;33.00;;;;;;;8.14;100.00;100398.88;4999886;28;20509;-72
2023/04/23 03:32:14;;;;;;;70.00;32.53;;;;;;;8.07;100.00;100392.63;5007736;28;20050;-69
2023/04/23 03:34:40;;;;;;;69.32;32.03;;;;;;;8.10;100.00;100402.91;5010167;28;20057;-73
2023/04/23 03:37:07;;;;;;;66.93;30.80;;;;;;;8.08;100.00;100395.00;5004719;28;20056;-72
2023/04/23 03:39:34;;;;;;;69.40;33.60;;;;;;;8.06;100.00;100402.91;5004495;28;20053;-71
2023/04/23 03:42:00;;;;;;;67.45;30.63;;;;;;;8.03;100.00;100395.41;5009852;28;20056;-75
2023/04/23 03:44:27;;;;;;;67.70;29.92;;;;;;;8.04;100.00;100396.22;5002991;28;20074;-72
2023/04/23 03:46:54;;;;;;;69.65;33.22;;;;;;;8.05;100.00;100398.59;5006370;28;20065;-71
2023/04/23 03:49:20;;;;;;;71.20;29.90;;;;;;;8.08;100.00;100399.75;5008564;28;20046;-73
2023/04/23 03:51:47;;;;;;;70.45;33.53;;;;;;;8.10;100.00;100397.34;5001127;28;20084;-71
2023/04/23 03:54:13;;;;;;;67.68;31.13;;;;;;;8.14;100.00;100395.34;4996367;28;20046;-73
2023/04/23 03:56:39;;;;;;;70.35;31.90;;;;;;;8.14;100.00;100390.56;5006545;28;20069;-73
2023/04/23 03:59:06;;;;;;;68.65;30.30;;;;;;;8.13;100.00;100391.00;5009586;28;20041;-73
2023/04/23 04:01:35;;;;;;;65.47;31.67;;;;;;;8.14;100.00;100384.28;5007411;28;20079;-73
2023/04/23 04:04:01;;;;;;;65.10;29.65;;;;;;;8.09;100.00;100373.63;5008900;28;20053;-74
2023/04/23 04:06:28;;;;;;;60.08;28.17;;;;;;;8.09;100.00;100373.63;5010020;28;20053;-72
2023/04/23 04:08:55;;;;;;;66.20;30.90;;;;;;;8.08;100.00;100369.28;4993368;28;20053;-73
2023/04/23 04:11:21;;;;;;;66.13;31.00;;;;;;;8.03;100.00;100376.03;5003721;28;20706;-71
2023/04/23 04:13:47;;;;;;;61.55;28.92;;;;;;;8.03;100.00;100367.75;5009668;28;20172;-72
2023/04/23 04:16:14;;;;;;;62.08;29.00;;;;;;;8.04;100.00;100366.56;5001380;28;20052;-72
2023/04/23 04:18:41;;;;;;;67.95;30.80;;;;;;;7.99;100.00;100361.44;5007828;28;20057;-72
2023/04/23 04:21:07;;;;;;;66.18;29.70;;;;;;;8.01;100.00;100364.59;5001554;28;20049;-72
2023/04/23 04:23:34;;;;;;;64.75;29.70;;;;;;;7.98;100.00;100370.97;5008905;28;20060;-72
2023/04/23 04:26:01;;;;;;;61.35;29.83;;;;;;;7.97;100.00;100363.81;5004767;28;20497;-72
2023/04/23 04:28:27;;;;;;;62.15;29.83;;;;;;;7.95;100.00;100368.22;5004857;28;20058;-71
2023/04/23 04:30:56;;;;;;;67.95;30.98;;;;;;;7.96;100.00;100359.50;5007329;28;20045;-72
2023/04/23 04:33:24;;;;;;;63.60;30.45;;;;;;;7.90;100.00;100357.59;5002729;28;20061;-72
2023/04/23 04:35:51;;;;;;;73.50;29.23;;;;;;;7.93;100.00;100365.06;5003058;28;20081;-71
2023/04/23 04:38:18;;;;;;;63.63;30.40;;;;;;;7.91;100.00;100359.16;5008737;28;20129;-70
2023/04/23 04:40:45;;;;;;;62.30;29.33;;;;;;;7.87;100.00;100352.84;5004997;28;20050;-72
2023/04/23 04:43:11;;;;;;;62.35;27.60;;;;;;;7.84;100.00;100365.53;4999057;28;20056;-71
2023/04/23 04:45:38;;;;;;;63.60;28.63;;;;;;;7.81;100.00;100360.81;5008649;28;20050;-72
2023/04/23 04:48:05;;;;;;;58.10;28.20;;;;;;;7.82;100.00;100364.34;5008897;28;20053;-72
2023/04/23 04:50:31;;;;;;;64.13;29.27;;;;;;;7.78;100.00;100360.81;4998318;28;20057;-71
2023/04/23 04:52:59;;;;;;;63.20;29.85;;;;;;;7.75;100.00;100356.09;5007651;28;20049;-71
2023/04/23 04:55:26;;;;;;;64.40;29.48;;;;;;;7.75;100.00;100364.41;5007523;28;20417;-73
2023/04/23 04:57:52;;;;;;;61.70;29.40;;;;;;;7.77;100.00;100371.13;5007084;28;20056;-71
2023/04/23 05:00:23;;;;;;;58.42;28.63;;;;;;;7.77;100.00;100365.59;5008369;28;20057;-72
2023/04/23 05:02:50;;;;;;;64.78;30.58;;;;;;;7.76;100.00;100369.53;5008091;28;20419;-73
2023/04/23 05:05:19;;;;;;;63.63;30.50;;;;;;;7.81;100.00;100373.84;5001898;28;20042;-72
2023/04/23 05:07:45;;;;;;;62.30;30.27;;;;;;;7.81;100.00;100377.41;4999173;28;20049;-73
2023/04/23 05:10:13;;;;;;;62.78;30.20;;;;;;;7.78;100.00;100372.69;5007861;28;20148;-72
2023/04/23 05:12:42;;;;;;;59.22;26.90;;;;;;;7.83;100.00;100374.25;5002371;28;20050;-74
2023/04/23 05:15:13;;;;;;;64.00;29.48;;;;;;;7.81;100.00;100377.41;4998202;28;20058;-72
2023/04/23 05:17:40;;;;;;;72.93;31.20;;;;;;;7.84;100.00;100376.59;4989155;28;20062;-72
2023/04/23 05:20:11;;;;;;;63.05;31.40;;;;;;;7.86;100.00;100385.28;5002811;28;20049;-70
2023/04/23 05:22:40;;;;;;;59.10;28.88;;;;;;;7.91;100.00;100384.84;5003901;28;20053;-72
2023/04/23 05:25:08;;;;;;;60.90;29.17;;;;;;;7.93;100.00;100385.22;5007611;28;20038;-72
2023/04/23 05:27:35;;;;;;;63.95;30.05;;;;;;;7.97;100.00;100393.50;5007889;28;20046;-72
2023/04/23 05:30:04;;;;;;;68.90;31.10;;;;;;;8.03;100.00;100389.13;4998908;28;20046;-74
2023/04/23 05:32:31;;;;;;;63.40;31.38;;;;;;;8.08;100.00;100385.91;5001003;28;20108;-72
2023/04/23 05:34:58;;;;;;;68.18;32.75;;;;;;;8.20;100.00;100390.94;5005939;28;20771;-71
2023/04/23 05:37:25;;;;;;;71.20;33.40;;;;;;;8.31;100.00;100380.56;5008113;28;20111;-72
2023/04/23 05:39:51;;;;;;;56.75;29.60;;;;;;;8.43;100.00;100380.03;5007623;28;20056;-73
2023/04/23 05:42:18;;;;;;;58.42;27.35;;;;;;;8.55;100.00;100383.09;5001339;28;20452;-74
2023/04/23 05:44:45;;;;;;;54.78;28.83;;;;;;;8.75;100.00;100377.75;5007337;28;20045;-72
2023/04/23 05:47:13;;;;;;;54.75;27.15;;;;;;;8.90;100.00;100379.94;4999505;28;20068;-73
2023/04/23 05:49:39;;;;;;;52.47;26.65;;;;;;;9.04;100.00;100370.66;5007573;28;20061;-72
2023/04/23 05:52:06;;;;;;;41.78;19.85;;;;;;;9.14;100.00;100376.06;5006510;28;20520;-73
2023/04/23 05:54:32;;;;;;;38.95;19.17;;;;;;;9.29;100.00;100371.13;5002008;28;20049;-73
2023/04/23 05:56:59;;;;;;;41.92;19.35;;;;;;;9.47;100.00;100371.66;4999719;28;20061;-72
2023/04/23 05:59:26;;;;;;;26.05;12.10;;;;;;;9.55;100.00;100368.38;5001049;28;20451;-73
2023/04/23 06:01:52;;;;;;;36.95;18.80;;;;;;;9.69;100.00;100361.84;5000303;28;20050;-73
2023/04/23 06:04:19;;;;;;;25.63;12.00;;;;;;;9.70;100.00;100371.72;4999899;28;20054;-73
2023/04/23 06:06:46;;;;;;;39.83;21.70;;;;;;;9.82;100.00;100360.03;5003927;28;20295;-72
2023/04/23 06:09:13;;;;;;;39.33;19.77;;;;;;;9.89;100.00;100363.47;5001615;28;20535;-72
2023/04/23 06:11:39;;;;;;;37.90;20.45;;;;;;;9.86;100.00;100353.22;5007513;28;20059;-72
2023/04/23 06:14:06;;;;;;;32.88;16.00;;;;;;;9.97;100.00;100362.16;5007252;28;20046;-72
2023/04/23 06:16:32;;;;;;;31.35;14.00;;;;;;;9.94;100.00;100367.78;5002418;28;20061;-71
2023/04/23 06:18:59;;;;;;;34.97;19.50;;;;;;;10.06;100.00;100364.41;5007281;28;20500;-71
2023/04/23 06:21:26;;;;;;;39.40;20.92;;;;;;;10.19;100.00;100362.59;5007279;28;20054;-73
2023/04/23 06:23:53;;;;;;;16.75;6.65;;;;;;;10.19;100.00;100370.19;5003949;28;20065;-73
2023/04/23 06:26:19;;;;;;;36.47;18.98;;;;;;;10.27;100.00;100363.28;5001930;28;20050;-73
2023/04/23 06:28:46;;;;;;;32.63;15.65;;;;;;;10.31;100.00;100359.22;5006878;28;20058;-74
2023/04/23 06:31:12;;;;;;;25.85;13.02;;;;;;;10.35;100.00;100356.38;5005895;28;20505;-72
2023/04/23 06:33:39;;;;;;;26.98;12.48;;;;;;;10.37;100.00;100356.75;5005224;28;20080;-74
2023/04/23 06:36:08;;;;;;;29.23;16.25;;;;;;;10.47;100.00;100356.56;5003685;28;20065;-71
2023/04/23 06:38:34;;;;;;;30.98;17.10;;;;;;;10.52;100.00;100360.81;4997730;28;20068;-71
2023/04/23 06:41:02;;;;;;;28.80;13.48;;;;;;;10.57;100.00;100363.13;5003030;28;20137;-72
2023/04/23 06:43:29;;;;;;;19.25;8.02;;;;;;;10.49;100.00;100368.03;5007077;28;20057;-73
2023/04/23 06:45:55;;;;;;;31.00;13.38;;;;;;;10.59;100.00;100363.47;5005355;28;20057;-72
2023/04/23 06:48:22;;;;;;;22.65;11.70;;;;;;;10.64;100.00;100351.88;5005947;28;20057;-72
2023/04/23 06:50:48;;;;;;;26.98;14.85;;;;;;;10.67;100.00;100349.00;4996866;28;20461;-74
2023/04/23 06:53:15;;;;;;;18.92;9.35;;;;;;;10.68;100.00;100355.38;5000142;28;20045;-74
2023/04/23 06:55:41;;;;;;;28.83;13.80;;;;;;;10.66;100.00;100346.66;5006659;28;20054;-73
2023/04/23 06:58:08;;;;;;;29.23;14.70;;;;;;;10.81;100.00;100343.19;5007680;28;20429;-73
2023/04/23 07:00:34;;;;;;;11.13;4.53;;;;;;;10.77;100.00;100348.00;4999930;28;20394;-73
2023/04/23 07:03:01;;;;;;;10.68;5.03;;;;;;;10.81;100.00;100350.75;4994863;28;20141;-73
2023/04/23 07:05:28;;;;;;;28.80;14.13;;;;;;;10.97;100.00;100354.34;4996963;28;20057;-72
2023/04/23 07:07:54;;;;;;;25.35;14.25;;;;;;;11.00;100.00;100339.59;4995037;28;20038;-73
2023/04/23 07:10:21;;;;;;;23.70;11.30;;;;;;;11.05;100.00;100341.09;4994713;28;20050;-73
2023/04/23 07:12:48;;;;;;;26.08;13.43;;;;;;;11.13;100.00;100348.06;5003524;28;20060;-73
2023/04/23 07:15:15;;;;;;;28.77;14.75;;;;;;;11.27;100.00;100345.81;5006782;28;20048;-73
2023/04/23 07:17:41;;;;;;;26.45;14.15;;;;;;;11.39;100.00;100345.16;5006801;28;20058;-73
2023/04/23 07:20:08;;;;;;;24.40;14.50;;;;;;;11.45;100.00;100335.03;4994734;28;20097;-72
2023/04/23 07:22:34;;;;;;;22.13;10.68;;;;;;;11.48;100.00;100338.97;4994882;28;20054;-73
2023/04/23 07:25:01;;;;;;;22.70;13.98;;;;;;;11.59;100.00;100333.94;5001783;28;20046;-72
2023/04/23 07:27:28;;;;;;;20.50;8.50;;;;;;;11.48;100.00;100334.19;4999173;28;20060;-75
2023/04/23 07:29:54;;;;;;;23.70;12.27;;;;;;;11.56;100.00;100332.81;4998490;28;20050;-73
2023/04/23 07:32:22;;;;;;;15.65;6.45;;;;;;;11.54;100.00;100334.44;5005983;28;20452;-73
2023/04/23 07:34:50;;;;;;;21.40;10.40;;;;;;;11.58;100.00;100330.38;5008208;28;20062;-73
2023/04/23 07:37:16;;;;;;;22.40;9.95;;;;;;;11.65;100.00;100329.44;5009000;28;20052;-72
2023/04/23 07:39:43;;;;;;;21.98;9.55;;;;;;;11.76;100.00;100327.97;5003110;28;20049;-74
2023/04/23 07:42:10;;;;;;;15.90;7.53;;;;;;;11.83;100.00;100327.78;5009714;28;20073;-72
2023/04/23 07:44:36;;;;;;;17.80;9.27;;;;;;;11.91;100.00;100323.59;5006997;28;20050;-74
2023/04/23 07:47:03;;;;;;;23.48;10.00;;;;;;;12.05;100.00;100322.44;5009920;28;20056;-74
2023/04/23 07:49:30;;;;;;;21.50;8.40;;;;;;;12.11;100.00;100315.94;5009431;28;20050;-73
2023/04/23 07:51:56;;;;;;;21.23;9.52;;;;;;;12.24;100.00;100311.22;4995969;28;20159;-73
2023/04/23 07:54:23;;;;;;;15.23;6.97;;;;;;;12.32;100.00;100315.38;5007390;28;20421;-73
2023/04/23 07:56:51;;;;;;;16.23;8.23;;;;;;;12.43;100.00;100307.53;5001242;28;20116;-73
2023/04/23 07:59:17;;;;;;;17.77;7.22;;;;;;;12.50;100.00;100314.91;5010142;28;20045;-72
2023/04/23 08:01:44;;;;;;;16.83;4.68;;;;;;;12.49;100.00;100308.56;5007335;28;20061;-74
2023/04/23 08:04:11;;;;;;;6.03;2.72;;;;;;;12.64;100.00;100319.31;5009764;28;20053;-71
2023/04/23 08:06:38;;;;;;;9.55;4.32;;;;;;;12.74;100.00;100309.88;5009430;28;20455;-72
2023/04/23 08:09:08;;;;;;;18.77;8.07;;;;;;;12.82;100.00;100312.00;5005514;28;20054;-74
2023/04/23 08:11:34;;;;;;;9.90;3.85;;;;;;;12.77;100.00;100311.78;4998100;28;20058;-71
2023/04/23 08:14:01;;;;;;;17.05;7.50;;;;;;;12.93;100.00;100300.56;5002192;28;20061;-70
2023/04/23 08:16:28;;;;;;;13.13;5.70;;;;;;;13.08;100.00;100301.69;4996926;28;20081;-71
2023/04/23 08:18:57;;;;;;;16.00;6.30;;;;;;;13.19;100.00;100290.97;5009213;28;20085;-70
2023/04/23 08:21:30;;;;;;;7.63;3.42;;;;;;;13.11;100.00;100290.44;5007955;28;20049;-72
2023/04/23 08:23:57;;;;;;;7.43;3.50;;;;;;;13.24;100.00;100290.44;5002888;28;20710;-71
2023/04/23 08:26:24;;;;;;;12.82;5.50;;;;;;;13.28;100.00;100294.69;5003861;28;20038;-72
2023/04/23 08:28:51;;;;;;;13.27;5.07;;;;;;;13.29;100.00;100287.88;5008511;28;20050;-73
2023/04/23 08:31:17;;;;;;;5.95;2.90;;;;;;;13.22;100.00;100282.50;4999567;28;20061;-73
2023/04/23 08:33:52;;;;;;;15.43;4.97;;;;;;;13.38;100.00;100279.59;5006101;28;20050;-74
2023/04/23 08:36:18;;;;;;;15.73;5.28;;;;;;;13.43;100.00;100289.47;5009126;28;20046;-72
2023/04/23 08:38:45;;;;;;;4.07;2.17;;;;;;;13.28;100.00;100288.31;5001052;28;20049;-72
2023/04/23 08:41:14;;;;;;;9.68;3.10;;;;;;;13.43;100.00;100289.47;5003530;28;20679;-74
2023/04/23 08:43:46;;;;;;;14.13;4.90;;;;;;;13.61;100.00;100290.44;5005839;28;20096;-74
2023/04/23 08:46:14;;;;;;;7.13;1.95;;;;;;;13.54;100.00;100281.53;5002762;28;20052;-76
2023/04/23 08:48:43;;;;;;;7.55;2.95;;;;;;;13.62;100.00;100274.47;5000944;28;20504;-75
2023/04/23 08:51:16;;;;;;;4.93;2.35;;;;;;;13.65;100.00;100274.38;5013606;28;20050;-73
2023/04/23 08:53:45;;;;;;;5.10;2.15;;;;;;;13.70;100.00;100281.38;5003004;28;20480;-73
2023/04/23 08:56:12;;;;;;;13.85;5.18;;;;;;;13.85;100.00;100285.28;5008914;28;20038;-74
2023/04/23 08:58:40;;;;;;;9.63;3.47;;;;;;;13.73;100.00;100283.28;5004443;28;20046;-76
2023/04/23 09:01:07;;;;;;;10.02;4.43;;;;;;;13.93;100.00;100284.59;5007487;28;20056;-73
2023/04/23 09:03:35;;;;;;;9.27;3.53;;;;;;;13.80;100.00;100288.63;5008345;28;20102;-74
2023/04/23 09:06:01;;;;;;;6.35;2.85;;;;;;;13.95;100.00;100286.94;5002746;28;20046;-74
2023/04/23 09:08:29;;;;;;;2.58;1.60;;;;;;;13.96;100.00;100285.69;5000689;28;20427;-73
2023/04/23 09:11:00;;;;;;;5.95;2.50;;;;;;;14.03;100.00;100291.03;4997330;28;20116;-74
2023/04/23 09:13:27;;;;;;;7.50;2.60;;;;;;;14.11;100.00;100281.22;4992358;28;20843;-73
2023/04/23 09:15:53;;;;;;;5.43;2.17;;;;;;;14.19;100.00;100277.72;5003864;28;20053;-73
2023/04/23 09:18:20;;;;;;;8.88;3.45;;;;;;;14.39;100.00;100274.63;5002856;28;20045;-74
2023/04/23 09:20:49;;;;;;;7.78;3.03;;;;;;;14.41;100.00;100272.13;5002973;28;20046;-74
2023/04/23 09:23:15;;;;;;;9.50;3.28;;;;;;;14.69;100.00;100271.91;5003440;28;20053;-74
2023/04/23 09:25:42;;;;;;;8.95;2.95;;;;;;;14.56;100.00;100267.63;5003318;28;20046;-72
2023/04/23 09:28:12;;;;;;;11.32;3.67;;;;;;;14.91;100.00;100266.28;4996746;28;20050;-73
2023/04/23 09:30:43;;;;;;;6.05;2.03;;;;;;;15.09;100.00;100257.22;4998301;28;20065;-74
2023/04/23 09:33:11;;;;;;;5.68;1.85;;;;;;;15.12;100.00;100248.66;4993112;28;20056;-74
2023/04/23 09:35:38;;;;;;;7.43;3.35;;;;;;;15.42;100.00;100253.50;4996986;28;20125;-73
2023/04/23 09:38:06;;;;;;;4.05;2.10;;;;;;;15.49;100.00;100247.59;4997241;28;20054;-73
2023/04/23 09:40:33;;;;;;;5.45;2.60;;;;;;;15.62;100.00;100247.47;4994120;28;21079;-73
2023/04/23 09:43:02;;;;;;;5.35;2.35;;;;;;;15.69;100.00;100250.78;5000737;28;20046;-74
2023/04/23 09:45:29;;;;;;;7.93;2.63;;;;;;;15.88;100.00;100238.38;4999220;28;20069;-73
2023/04/23 09:47:57;;;;;;;3.28;1.88;;;;;;;15.75;100.00;100243.31;4996513;28;20058;-73
2023/04/23 09:50:53;;;;;;;8.52;2.92;;;;;;;16.01;100.00;100241.81;4997276;28;20137;-72
2023/04/23 09:53:20;;;;;;;8.80;3.40;;;;;;;16.02;100.00;100245.38;4993440;28;20076;-74
2023/04/23 09:55:46;;;;;;;8.05;3.85;;;;;;;16.08;100.00;100238.69;4994887;28;20591;-73
2023/04/23 09:58:14;;;;;;;7.80;3.25;;;;;;;15.55;100.00;100244.97;5000903;28;20132;-73
2023/04/23 10:00:41;;;;;;;4.25;2.42;;;;;;;15.43;100.00;100245.88;4998175;28;20049;-74
2023/04/23 10:03:08;;;;;;;7.22;2.45;;;;;;;15.30;100.00;100248.75;5005669;28;20054;-72
2023/04/23 10:05:40;;;;;;;6.50;2.25;;;;;;;15.42;100.00;100244.34;5006946;28;20057;-74
2023/04/23 10:08:12;;;;;;;3.17;1.83;;;;;;;15.61;100.00;100248.72;4995928;28;20065;-74
2023/04/23 10:10:40;;;;;;;9.70;3.67;;;;;;;15.72;100.00;100238.66;4995795;28;20046;-73
2023/04/23 10:13:26;;;;;;;;;;;;;;;16.01;100.00;100241.03;4993845;28;20065;-74
2023/04/23 10:15:53;;;;;;;12.63;4.00;;;;;;;16.29;100.00;100243.41;4996472;28;19928;-75
2023/04/23 10:18:20;;;;;;;9.75;3.50;;;;;;;16.19;100.00;100239.00;4993958;28;20053;-73
2023/04/23 10:20:49;;;;;;;7.38;3.45;;;;;;;16.26;100.00;100233.13;4993747;28;20053;-73
2023/04/23 10:23:18;;;;;;;7.85;1.75;;;;;;;16.10;100.00;100238.25;5002509;28;20050;-74
2023/04/23 10:25:46;;;;;;;5.13;2.33;;;;;;;16.13;100.00;100249.28;5004001;28;20092;-74
2023/04/23 10:28:16;;;;;;;4.97;2.08;;;;;;;16.07;100.00;100231.50;5002694;28;20052;-74
2023/04/23 10:30:43;;;;;;;22.38;1.95;;;;;;;16.10;100.00;100230.59;5004302;28;20255;-75
2023/04/23 10:33:11;;;;;;;4.15;2.20;;;;;;;16.02;100.00;100228.56;4997636;28;20047;-74
2023/04/23 10:35:56;;;;;;;8.68;3.25;;;;;;;16.40;100.00;100226.88;4997357;28;20046;-73
2023/04/23 10:38:27;;;;;;;2.22;1.33;;;;;;;16.58;100.00;100226.84;5001313;28;20137;-73
2023/04/23 10:40:55;;;;;;;2.72;1.90;;;;;;;16.38;100.00;100226.59;5007168;28;20049;-74
2023/04/23 10:43:23;;;;;;;4.10;2.03;;;;;;;16.33;100.00;100218.78;5007206;28;20061;-73
2023/04/23 10:45:49;;;;;;;9.52;3.35;;;;;;;16.63;100.00;100205.78;4999230;28;20138;-73
2023/04/23 10:48:16;;;;;;;5.72;2.58;;;;;;;16.54;100.00;100203.78;5006282;28;20073;-73
2023/04/23 10:50:43;;;;;;;4.45;2.72;;;;;;;16.66;100.00;100202.03;5007358;28;20046;-74
2023/04/23 10:53:30;;;;;;;6.72;3.05;;;;;;;16.73;100.00;100205.31;4999435;28;20049;-74
2023/04/23 10:56:08;;;;;;;5.90;2.35;;;;;;;16.54;100.00;100189.75;5005539;28;20045;-74
2023/04/23 10:58:49;;;;;;;3.40;1.90;;;;;;;16.79;100.00;100191.41;5002864;28;20416;-75
2023/04/23 11:01:17;;;;;;;6.10;2.60;;;;;;;16.81;100.00;100178.44;4994452;28;20077;-72
2023/04/23 11:03:44;;;;;;;5.07;2.70;;;;;;;16.80;100.00;100182.53;5005280;28;20069;-75
2023/04/23 11:06:19;;;;;;;7.40;2.38;;;;;;;16.91;100.00;100179.22;5000877;28;20045;-74
2023/04/23 11:08:53;;;;;;;6.68;2.90;;;;;;;17.06;100.00;100188.50;5002377;28;20054;-73
2023/04/23 11:11:38;;;;;;;4.57;1.70;;;;;;;16.87;100.00;100179.38;5000148;28;20042;-73